createdAt,value
2023-07-02T00:00:19.735Z,93.96
2023-07-02T00:01:19.794Z,93.87
2023-07-02T00:02:20.069Z,94.17
2023-07-02T00:03:20.065Z,94.27
2023-07-02T00:04:20.045Z,94.37
2023-07-02T00:05:20.052Z,94.62
2023-07-02T00:06:20.116Z,94.82
2023-07-02T00:07:20.255Z,94.72
2023-07-02T00:08:20.295Z,94.92
2023-07-02T00:09:20.319Z,94.92
2023-07-02T00:10:20.388Z,95.02
2023-07-02T00:11:20.460Z,94.92
2023-07-02T00:12:20.540Z,94.82
2023-07-02T00:13:20.637Z,94.92
2023-07-02T00:14:20.696Z,95.02
2023-07-02T00:15:20.751Z,95.02
2023-07-02T00:16:20.854Z,94.92
2023-07-02T00:17:20.936Z,94.92
2023-07-02T00:18:21.011Z,94.92
2023-07-02T00:19:21.398Z,94.82
2023-07-02T00:20:21.175Z,94.82
2023-07-02T00:21:21.236Z,94.82
2023-07-02T00:22:21.401Z,94.82
2023-07-02T00:23:21.407Z,94.62
2023-07-02T00:24:21.521Z,94.67
2023-07-02T00:25:21.564Z,94.67
2023-07-02T00:26:21.667Z,94.67
2023-07-02T00:27:21.758Z,94.47
2023-07-02T00:28:21.853Z,94.31
2023-07-02T00:29:21.898Z,94.11
2023-07-02T00:30:21.968Z,93.91
2023-07-02T00:31:22.086Z,93.91
2023-07-02T00:32:22.166Z,94.01
2023-07-02T00:33:22.200Z,94.01
2023-07-02T00:34:22.253Z,94.11
2023-07-02T00:35:22.322Z,94.11
2023-07-02T00:36:22.385Z,94.21
2023-07-02T00:37:22.469Z,94.11
2023-07-02T00:38:22.525Z,94.11
2023-07-02T00:39:22.600Z,94.01
2023-07-02T00:40:22.661Z,94.11
2023-07-02T00:41:22.740Z,94.31
2023-07-02T00:42:22.798Z,94.15
2023-07-02T00:43:22.974Z,94.26
2023-07-02T00:44:24.476Z,94.36
2023-07-02T00:45:23.042Z,94.36
2023-07-02T00:46:23.183Z,94.26
2023-07-02T00:47:23.214Z,94.46
2023-07-02T00:48:23.273Z,94.36
2023-07-02T00:49:23.348Z,94.76
2023-07-02T00:50:23.394Z,94.66
2023-07-02T00:51:23.476Z,94.15
2023-07-02T00:52:23.540Z,93.85
2023-07-02T00:53:23.655Z,93.49
2023-07-02T00:54:23.729Z,93.29
2023-07-02T00:55:23.779Z,93.19
2023-07-02T00:56:23.882Z,93.08
2023-07-02T00:57:23.944Z,92.88
2023-07-02T00:58:24.016Z,92.99
2023-07-02T00:59:24.104Z,92.79
2023-07-02T01:00:24.164Z,92.38
2023-07-02T01:01:24.294Z,92.48
2023-07-02T01:02:24.386Z,92.58
2023-07-02T01:03:24.514Z,92.58
2023-07-02T01:04:24.553Z,92.28
2023-07-02T01:05:24.779Z,92.22
2023-07-02T01:06:24.684Z,92.22
2023-07-02T01:07:24.877Z,92.22
2023-07-02T01:08:24.885Z,91.82
2023-07-02T01:09:24.969Z,91.41
2023-07-02T01:10:25.046Z,91.20
2023-07-02T01:11:25.153Z,90.91
2023-07-02T01:12:25.211Z,90.70
2023-07-02T01:13:25.348Z,90.50
2023-07-02T01:14:25.368Z,90.20
2023-07-02T01:15:25.474Z,90.24
2023-07-02T01:16:25.564Z,90.03
2023-07-02T01:17:25.671Z,89.94
2023-07-02T01:18:25.723Z,89.63
2023-07-02T01:19:25.807Z,89.43
2023-07-02T01:20:25.897Z,89.94
2023-07-02T01:21:25.974Z,90.14
2023-07-02T01:22:26.041Z,90.03
2023-07-02T01:23:26.156Z,89.53
2023-07-02T01:24:26.227Z,90.24
2023-07-02T01:25:26.323Z,89.94
2023-07-02T01:26:26.409Z,89.83
2023-07-02T01:27:26.518Z,89.73
2023-07-02T01:28:26.588Z,89.63
2023-07-02T01:29:26.686Z,89.94
2023-07-02T01:30:26.731Z,89.83
2023-07-02T01:31:26.870Z,89.43
2023-07-02T01:32:26.946Z,89.17
2023-07-02T01:33:27.042Z,89.12
2023-07-02T01:34:27.085Z,89.02
2023-07-02T01:35:27.271Z,89.12
2023-07-02T01:36:27.260Z,88.92
2023-07-02T01:37:27.328Z,88.82
2023-07-02T01:38:27.405Z,88.72
2023-07-02T01:39:27.488Z,88.62
2023-07-02T01:40:27.534Z,88.62
2023-07-02T01:41:27.614Z,88.72
2023-07-02T01:42:27.668Z,88.62
2023-07-02T01:43:27.796Z,88.62
2023-07-02T01:44:27.835Z,88.62
2023-07-02T01:45:27.949Z,88.62
2023-07-02T01:46:28.103Z,88.82
2023-07-02T01:47:28.142Z,89.12
2023-07-02T01:48:28.230Z,89.53
2023-07-02T01:49:28.309Z,89.53
2023-07-02T01:50:28.358Z,89.23
2023-07-02T01:51:28.474Z,89.53
2023-07-02T01:52:28.548Z,89.94
2023-07-02T01:53:28.641Z,89.32
2023-07-02T01:54:28.797Z,89.32
2023-07-02T01:55:28.795Z,89.53
2023-07-02T01:56:28.875Z,89.32
2023-07-02T01:57:28.981Z,89.12
2023-07-02T01:58:29.080Z,89.43
2023-07-02T01:59:29.138Z,89.53
2023-07-02T02:00:29.201Z,89.23
2023-07-02T02:01:29.355Z,89.23
2023-07-02T02:02:29.543Z,88.72
2023-07-02T02:03:29.690Z,88.62
2023-07-02T02:04:29.584Z,88.92
2023-07-02T02:05:29.659Z,88.82
2023-07-02T02:06:29.720Z,88.82
2023-07-02T02:07:29.821Z,89.12
2023-07-02T02:08:29.938Z,89.12
2023-07-02T02:09:29.989Z,89.02
2023-07-02T02:10:30.042Z,88.72
2023-07-02T02:11:30.147Z,89.02
2023-07-02T02:12:30.207Z,88.72
2023-07-02T02:13:30.330Z,88.51
2023-07-02T02:14:30.393Z,88.62
2023-07-02T02:15:30.602Z,89.02
2023-07-02T02:16:30.663Z,88.92
2023-07-02T02:17:30.678Z,88.82
2023-07-02T02:18:30.736Z,88.82
2023-07-02T02:19:30.793Z,88.82
2023-07-02T02:20:30.859Z,88.82
2023-07-02T02:21:30.969Z,88.62
2023-07-02T02:22:31.051Z,88.72
2023-07-02T02:23:31.199Z,88.51
2023-07-02T02:24:31.238Z,88.42
2023-07-02T02:25:31.339Z,88.51
2023-07-02T02:26:31.410Z,88.82
2023-07-02T02:27:31.526Z,89.02
2023-07-02T02:28:31.600Z,89.23
2023-07-02T02:29:31.660Z,89.32
2023-07-02T02:30:31.743Z,89.43
2023-07-02T02:31:31.979Z,89.73
2023-07-02T02:32:31.993Z,89.43
2023-07-02T02:33:32.049Z,89.23
2023-07-02T02:34:32.099Z,89.12
2023-07-02T02:35:32.210Z,89.23
2023-07-02T02:36:32.260Z,89.32
2023-07-02T02:37:32.379Z,89.53
2023-07-02T02:38:32.500Z,89.53
2023-07-02T02:39:32.556Z,89.48
2023-07-02T02:40:32.643Z,89.39
2023-07-02T02:41:32.742Z,89.02
2023-07-02T02:42:32.834Z,88.92
2023-07-02T02:43:32.995Z,89.02
2023-07-02T02:44:32.995Z,89.02
2023-07-02T02:45:33.095Z,89.23
2023-07-02T02:46:33.146Z,89.12
2023-07-02T02:47:33.256Z,89.32
2023-07-02T02:48:33.345Z,89.63
2023-07-02T02:49:33.404Z,89.94
2023-07-02T02:50:33.488Z,89.23
2023-07-02T02:51:33.588Z,89.23
2023-07-02T02:52:33.636Z,89.23
2023-07-02T02:53:33.766Z,89.63
2023-07-02T02:54:33.813Z,89.94
2023-07-02T02:55:33.913Z,90.24
2023-07-02T02:56:33.999Z,90.03
2023-07-02T02:57:34.104Z,89.83
2023-07-02T02:58:34.179Z,90.14
2023-07-02T02:59:34.268Z,90.34
2023-07-02T03:00:34.311Z,90.24
2023-07-02T03:01:34.469Z,90.24
2023-07-02T03:02:34.592Z,90.24
2023-07-02T03:03:34.664Z,90.24
2023-07-02T03:04:34.713Z,90.44
2023-07-02T03:05:34.768Z,90.54
2023-07-02T03:06:34.836Z,90.44
2023-07-02T03:07:34.963Z,90.64
2023-07-02T03:08:35.009Z,90.64
2023-07-02T03:09:35.110Z,90.54
2023-07-02T03:10:35.195Z,90.54
2023-07-02T03:11:35.288Z,90.75
2023-07-02T03:12:35.318Z,90.84
2023-07-02T03:13:35.453Z,90.84
2023-07-02T03:14:35.497Z,90.84
2023-07-02T03:15:35.602Z,90.64
2023-07-02T03:16:35.837Z,90.54
2023-07-02T03:17:35.834Z,90.54
2023-07-02T03:18:35.889Z,90.54
2023-07-02T03:19:35.937Z,90.34
2023-07-02T03:20:36.028Z,90.34
2023-07-02T03:21:36.124Z,90.44
2023-07-02T03:22:36.207Z,90.44
2023-07-02T03:23:36.330Z,90.24
2023-07-02T03:24:36.382Z,90.03
2023-07-02T03:25:36.465Z,89.83
2023-07-02T03:26:36.565Z,89.53
2023-07-02T03:27:36.704Z,89.32
2023-07-02T03:28:36.771Z,88.92
2023-07-02T03:29:36.823Z,88.92
2023-07-02T03:30:36.922Z,89.02
2023-07-02T03:31:37.062Z,89.02
2023-07-02T03:32:37.121Z,89.02
2023-07-02T03:33:37.195Z,89.02
2023-07-02T03:34:37.244Z,88.82
2023-07-02T03:35:37.337Z,88.82
2023-07-02T03:36:37.420Z,88.82
2023-07-02T03:37:37.498Z,88.82
2023-07-02T03:38:37.606Z,88.78
2023-07-02T03:39:37.666Z,88.72
2023-07-02T03:40:37.740Z,88.68
2023-07-02T03:41:37.823Z,88.68
2023-07-02T03:42:37.900Z,89.08
2023-07-02T03:43:38.027Z,88.88
2023-07-02T03:44:38.063Z,88.78
2023-07-02T03:45:38.153Z,88.78
2023-07-02T03:46:38.270Z,88.78
2023-07-02T03:47:38.323Z,88.88
2023-07-02T03:48:38.397Z,88.88
2023-07-02T03:49:38.485Z,88.78
2023-07-02T03:50:38.523Z,89.08
2023-07-02T03:51:38.603Z,88.51
2023-07-02T03:52:38.687Z,88.42
2023-07-02T03:53:38.801Z,88.51
2023-07-02T03:54:38.835Z,89.02
2023-07-02T03:55:38.935Z,89.23
2023-07-02T03:56:39.026Z,89.28
2023-07-02T03:57:39.114Z,89.23
2023-07-02T03:58:39.211Z,88.82
2023-07-02T03:59:39.308Z,88.92
2023-07-02T04:00:39.385Z,89.12
2023-07-02T04:01:39.488Z,89.43
2023-07-02T04:02:39.704Z,89.63
2023-07-02T04:03:39.788Z,89.32
2023-07-02T04:04:39.741Z,89.02
2023-07-02T04:05:39.790Z,88.82
2023-07-02T04:06:39.880Z,88.82
2023-07-02T04:07:39.959Z,88.68
2023-07-02T04:08:40.065Z,88.98
2023-07-02T04:09:40.145Z,88.31
2023-07-02T04:10:40.222Z,88.07
2023-07-02T04:11:40.322Z,88.07
2023-07-02T04:12:40.396Z,88.17
2023-07-02T04:13:40.527Z,88.78
2023-07-02T04:14:40.590Z,88.27
2023-07-02T04:15:40.660Z,88.48
2023-07-02T04:16:40.799Z,88.48
2023-07-02T04:17:40.857Z,87.97
2023-07-02T04:18:40.933Z,87.77
2023-07-02T04:19:41.024Z,87.87
2023-07-02T04:20:41.078Z,87.97
2023-07-02T04:21:41.190Z,87.87
2023-07-02T04:22:41.265Z,87.97
2023-07-02T04:23:41.387Z,87.97
2023-07-02T04:24:41.443Z,88.37
2023-07-02T04:25:46.673Z,87.77
2023-07-02T04:27:03.448Z,87.66
2023-07-02T04:27:50.402Z,87.36
2023-07-02T04:28:41.833Z,87.73
2023-07-02T04:29:41.918Z,87.52
2023-07-02T04:30:41.996Z,87.82
2023-07-02T04:31:42.139Z,87.82
2023-07-02T04:32:42.192Z,87.32
2023-07-02T04:33:42.265Z,87.93
2023-07-02T04:34:42.331Z,87.52
2023-07-02T04:35:42.423Z,87.22
2023-07-02T04:36:42.502Z,87.12
2023-07-02T04:37:42.589Z,87.42
2023-07-02T04:38:42.703Z,87.52
2023-07-02T04:39:42.757Z,87.42
2023-07-02T04:40:42.841Z,87.52
2023-07-02T04:41:42.923Z,87.58
2023-07-02T04:42:42.992Z,87.42
2023-07-02T04:43:43.113Z,87.73
2023-07-02T04:44:43.156Z,87.62
2023-07-02T04:45:43.278Z,87.79
2023-07-02T04:46:43.310Z,87.68
2023-07-02T04:47:43.394Z,87.38
2023-07-02T04:48:43.535Z,86.91
2023-07-02T04:49:43.562Z,86.71
2023-07-02T04:50:43.678Z,86.77
2023-07-02T04:51:43.740Z,87.18
2023-07-02T04:52:43.827Z,86.98
2023-07-02T04:53:43.919Z,86.77
2023-07-02T04:54:43.989Z,87.58
2023-07-02T04:55:44.038Z,86.77
2023-07-02T04:56:44.134Z,86.57
2023-07-02T04:57:44.217Z,86.27
2023-07-02T04:58:44.341Z,86.16
2023-07-02T04:59:44.401Z,86.47
2023-07-02T05:00:44.490Z,86.37
2023-07-02T05:01:44.653Z,86.67
2023-07-02T05:02:44.700Z,86.53
2023-07-02T05:03:44.805Z,86.83
2023-07-02T05:04:44.918Z,87.04
2023-07-02T05:05:44.924Z,87.04
2023-07-02T05:06:45.014Z,87.44
2023-07-02T05:07:45.101Z,86.73
2023-07-02T05:08:45.200Z,86.83
2023-07-02T05:09:45.241Z,86.63
2023-07-02T05:10:45.349Z,86.43
2023-07-02T05:11:45.415Z,86.22
2023-07-02T05:12:45.502Z,86.63
2023-07-02T05:13:45.618Z,87.04
2023-07-02T05:14:45.662Z,86.63
2023-07-02T05:15:45.754Z,86.43
2023-07-02T05:16:45.860Z,86.02
2023-07-02T05:17:45.955Z,86.43
2023-07-02T05:18:46.048Z,86.29
2023-07-02T05:19:46.104Z,86.29
2023-07-02T05:20:46.317Z,86.39
2023-07-02T05:21:46.262Z,86.59
2023-07-02T05:22:46.355Z,86.59
2023-07-02T05:23:46.460Z,86.39
2023-07-02T05:24:46.551Z,86.49
2023-07-02T05:25:46.631Z,86.95
2023-07-02T05:26:46.722Z,86.75
2023-07-02T05:27:46.806Z,86.85
2023-07-02T05:28:46.897Z,87.05
2023-07-02T05:29:46.952Z,87.05
2023-07-02T05:30:47.343Z,86.75
2023-07-02T05:31:47.178Z,86.75
2023-07-02T05:32:47.290Z,86.85
2023-07-02T05:33:47.364Z,86.85
2023-07-02T05:34:47.407Z,86.35
2023-07-02T05:35:47.468Z,85.60
2023-07-02T05:36:47.546Z,85.10
2023-07-02T05:37:47.642Z,85.10
2023-07-02T05:38:47.733Z,85.25
2023-07-02T05:39:47.789Z,84.95
2023-07-02T05:40:48.184Z,84.85
2023-07-02T05:41:47.939Z,84.45
2023-07-02T05:42:48.026Z,84.11
2023-07-02T05:43:48.116Z,83.80
2023-07-02T05:44:48.178Z,84.01
2023-07-02T05:45:48.247Z,83.80
2023-07-02T05:46:48.409Z,82.90
2023-07-02T05:47:48.434Z,83.30
2023-07-02T05:48:48.513Z,82.86
2023-07-02T05:49:48.583Z,82.45
2023-07-02T05:50:48.996Z,82.35
2023-07-02T05:51:48.745Z,81.75
2023-07-02T05:52:48.855Z,81.71
2023-07-02T05:53:48.943Z,81.81
2023-07-02T05:54:49.011Z,81.77
2023-07-02T05:55:49.101Z,81.23
2023-07-02T05:56:49.172Z,80.89
2023-07-02T05:57:49.231Z,79.08
2023-07-02T05:58:49.332Z,79.54
2023-07-02T05:59:49.422Z,78.94
2023-07-02T06:00:49.777Z,79.04
2023-07-02T06:01:49.557Z,78.17
2023-07-02T06:02:49.825Z,77.94
2023-07-02T06:03:49.872Z,77.39
2023-07-02T06:04:50.006Z,76.86
2023-07-02T06:05:50.240Z,76.48
2023-07-02T06:06:49.951Z,75.24
2023-07-02T06:07:50.026Z,74.44
2023-07-02T06:08:50.154Z,74.84
2023-07-02T06:09:50.200Z,75.01
2023-07-02T06:10:50.554Z,74.47
2023-07-02T06:11:50.371Z,74.77
2023-07-02T06:12:50.452Z,73.73
2023-07-02T06:13:50.564Z,72.19
2023-07-02T06:14:50.621Z,72.26
2023-07-02T06:15:50.700Z,71.69
2023-07-02T06:16:50.777Z,70.29
2023-07-02T06:17:50.893Z,70.93
2023-07-02T06:18:51.023Z,71.53
2023-07-02T06:19:50.990Z,72.27
2023-07-02T06:20:51.334Z,72.50
2023-07-02T06:21:51.163Z,72.83
2023-07-02T06:22:51.245Z,73.07
2023-07-02T06:23:51.334Z,73.47
2023-07-02T06:24:51.416Z,74.18
2023-07-02T06:25:51.470Z,73.37
2023-07-02T06:26:51.579Z,73.54
2023-07-02T06:27:51.645Z,73.33
2023-07-02T06:28:51.771Z,72.94
2023-07-02T06:29:51.843Z,72.90
2023-07-02T06:30:52.150Z,72.60
2023-07-02T06:31:52.020Z,72.60
2023-07-02T06:32:52.113Z,72.90
2023-07-02T06:33:52.193Z,72.43
2023-07-02T06:34:52.265Z,72.43
2023-07-02T06:35:52.356Z,73.27
2023-07-02T06:36:52.412Z,73.37
2023-07-02T06:37:52.531Z,73.27
2023-07-02T06:38:52.574Z,72.83
2023-07-02T06:39:52.659Z,72.50
2023-07-02T06:40:52.762Z,72.30
2023-07-02T06:41:52.805Z,72.53
2023-07-02T06:42:52.877Z,72.74
2023-07-02T06:43:53.007Z,72.94
2023-07-02T06:44:53.037Z,72.13
2023-07-02T06:45:53.127Z,71.33
2023-07-02T06:46:53.225Z,70.19
2023-07-02T06:47:53.325Z,69.79
2023-07-02T06:48:53.397Z,69.19
2023-07-02T06:49:53.461Z,70.39
2023-07-02T06:50:53.529Z,70.03
2023-07-02T06:51:53.627Z,69.82
2023-07-02T06:52:53.666Z,69.73
2023-07-02T06:53:53.753Z,69.86
2023-07-02T06:54:53.825Z,70.06
2023-07-02T06:55:53.894Z,70.53
2023-07-02T06:56:54.155Z,70.62
2023-07-02T06:57:54.073Z,70.73
2023-07-02T06:58:54.173Z,70.53
2023-07-02T06:59:54.246Z,70.76
2023-07-02T07:00:54.307Z,70.46
2023-07-02T07:01:54.450Z,69.35
2023-07-02T07:02:54.561Z,69.39
2023-07-02T07:03:54.601Z,70.69
2023-07-02T07:04:54.650Z,69.59
2023-07-02T07:05:54.717Z,70.19
2023-07-02T07:06:54.790Z,70.06
2023-07-02T07:07:54.880Z,70.26
2023-07-02T07:08:54.980Z,70.26
2023-07-02T07:09:55.049Z,70.76
2023-07-02T07:10:55.133Z,70.43
2023-07-02T07:11:55.212Z,70.12
2023-07-02T07:12:55.293Z,67.29
2023-07-02T07:13:55.398Z,65.48
2023-07-02T07:14:55.518Z,66.09
2023-07-02T07:15:55.543Z,64.52
2023-07-02T07:16:55.603Z,62.76
2023-07-02T07:17:55.790Z,61.73
2023-07-02T07:18:55.839Z,61.98
2023-07-02T07:19:55.856Z,60.52
2023-07-02T07:20:55.957Z,59.69
2023-07-02T07:21:56.030Z,58.41
2023-07-02T07:22:56.117Z,57.62
2023-07-02T07:23:56.198Z,57.84
2023-07-02T07:24:56.273Z,58.31
2023-07-02T07:25:56.379Z,56.32
2023-07-02T07:26:56.440Z,55.07
2023-07-02T07:27:56.552Z,55.47
2023-07-02T07:28:56.631Z,54.28
2023-07-02T07:29:56.712Z,53.51
2023-07-02T07:30:56.813Z,54.30
2023-07-02T07:31:56.966Z,53.36
2023-07-02T07:32:57.022Z,52.31
2023-07-02T07:33:57.082Z,50.76
2023-07-02T07:34:57.151Z,50.12
2023-07-02T07:35:57.228Z,48.49
2023-07-02T07:36:57.313Z,47.94
2023-07-02T07:37:57.388Z,46.74
2023-07-02T07:38:59.834Z,47.01
2023-07-02T07:39:57.582Z,46.59
2023-07-02T07:40:57.624Z,44.51
2023-07-02T07:41:57.791Z,45.78
2023-07-02T07:42:57.767Z,45.07
2023-07-02T07:43:57.887Z,43.57
2023-07-02T07:44:57.942Z,43.77
2023-07-02T07:45:58.101Z,43.14
2023-07-02T07:46:58.084Z,41.86
2023-07-02T07:47:58.175Z,41.74
2023-07-02T07:48:58.258Z,42.10
2023-07-02T07:49:58.325Z,41.37
2023-07-02T07:50:58.387Z,39.98
2023-07-02T07:51:58.498Z,40.74
2023-07-02T07:52:58.567Z,40.53
2023-07-02T07:53:58.726Z,39.74
2023-07-02T07:54:58.806Z,40.64
2023-07-02T07:55:58.863Z,40.48
2023-07-02T07:56:58.919Z,40.80
2023-07-02T07:57:59.020Z,41.94
2023-07-02T07:58:59.111Z,41.80
2023-07-02T07:59:59.202Z,42.24
2023-07-02T08:00:59.276Z,43.64
2023-07-02T08:01:59.519Z,44.25
2023-07-02T08:02:59.489Z,44.07
2023-07-02T08:03:59.710Z,44.27
2023-07-02T08:04:59.673Z,44.74
2023-07-02T08:05:59.680Z,42.61
2023-07-02T08:06:59.736Z,40.13
2023-07-02T08:07:59.821Z,39.23
2023-07-02T08:08:59.948Z,38.24
2023-07-02T08:10:00.003Z,39.31
2023-07-02T08:11:00.090Z,40.53
2023-07-02T08:12:00.185Z,41.36
2023-07-02T08:13:00.272Z,43.17
2023-07-02T08:14:00.384Z,43.10
2023-07-02T08:15:00.429Z,44.50
2023-07-02T08:16:00.558Z,45.41
2023-07-02T08:17:00.584Z,45.51
2023-07-02T08:18:00.704Z,46.33
2023-07-02T08:19:00.758Z,46.84
2023-07-02T08:20:00.831Z,47.46
2023-07-02T08:21:00.887Z,48.38
2023-07-02T08:22:00.988Z,49.11
2023-07-02T08:23:01.050Z,49.93
2023-07-02T08:24:01.190Z,50.73
2023-07-02T08:25:01.231Z,49.56
2023-07-02T08:26:01.326Z,49.38
2023-07-02T08:27:01.387Z,49.68
2023-07-02T08:28:01.500Z,50.48
2023-07-02T08:29:01.621Z,49.63
2023-07-02T08:30:01.676Z,49.21
2023-07-02T08:31:01.883Z,48.18
2023-07-02T08:32:01.813Z,47.46
2023-07-02T08:33:01.926Z,47.63
2023-07-02T08:34:01.992Z,47.74
2023-07-02T08:35:02.044Z,48.53
2023-07-02T08:36:02.143Z,48.72
2023-07-02T08:37:02.192Z,47.71
2023-07-02T08:38:02.292Z,46.40
2023-07-02T08:39:02.362Z,47.69
2023-07-02T08:40:02.588Z,47.22
2023-07-02T08:41:02.684Z,48.33
2023-07-02T08:42:02.620Z,48.75
2023-07-02T08:43:02.756Z,49.57
2023-07-02T08:44:02.822Z,49.46
2023-07-02T08:45:02.857Z,49.39
2023-07-02T08:46:02.963Z,49.79
2023-07-02T08:47:03.025Z,49.79
2023-07-02T08:48:03.162Z,49.46
2023-07-02T08:49:03.230Z,50.68
2023-07-02T08:50:03.291Z,50.16
2023-07-02T08:51:03.332Z,50.16
2023-07-02T08:52:03.437Z,49.34
2023-07-02T08:53:03.518Z,48.82
2023-07-02T08:54:03.641Z,47.93
2023-07-02T08:55:03.703Z,47.41
2023-07-02T08:56:03.802Z,47.49
2023-07-02T08:57:03.852Z,47.47
2023-07-02T08:58:03.953Z,47.29
2023-07-02T08:59:04.060Z,47.14
2023-07-02T09:00:04.132Z,47.56
2023-07-02T09:01:04.244Z,48.50
2023-07-02T09:02:04.295Z,50.13
2023-07-02T09:03:04.448Z,49.96
2023-07-02T09:04:04.585Z,50.58
2023-07-02T09:05:04.749Z,51.50
2023-07-02T09:06:04.656Z,52.22
2023-07-02T09:07:04.758Z,52.86
2023-07-02T09:08:04.773Z,52.89
2023-07-02T09:09:04.909Z,53.19
2023-07-02T09:10:04.938Z,53.71
2023-07-02T09:11:05.026Z,54.21
2023-07-02T09:12:05.102Z,54.81
2023-07-02T09:13:05.185Z,54.81
2023-07-02T09:14:05.295Z,55.08
2023-07-02T09:15:05.335Z,54.28
2023-07-02T09:16:05.402Z,54.68
2023-07-02T09:17:05.547Z,54.11
2023-07-02T09:18:05.642Z,55.01
2023-07-02T09:19:05.698Z,55.11
2023-07-02T09:20:05.736Z,55.24
2023-07-02T09:21:05.822Z,55.86
2023-07-02T09:22:05.902Z,55.58
2023-07-02T09:23:06.004Z,56.98
2023-07-02T09:24:06.081Z,56.61
2023-07-02T09:25:06.174Z,57.21
2023-07-02T09:26:06.278Z,57.44
2023-07-02T09:27:06.338Z,57.54
2023-07-02T09:28:06.410Z,57.93
2023-07-02T09:29:06.536Z,58.37
2023-07-02T09:30:06.579Z,58.56
2023-07-02T09:31:06.870Z,58.06
2023-07-02T09:32:10.631Z,59.39
2023-07-02T09:33:06.986Z,59.19
2023-07-02T09:34:07.155Z,58.80
2023-07-02T09:35:07.013Z,58.39
2023-07-02T09:36:07.104Z,58.69
2023-07-02T09:37:07.281Z,59.30
2023-07-02T09:38:07.266Z,59.49
2023-07-02T09:39:07.377Z,60.36
2023-07-02T09:40:07.961Z,59.36
2023-07-02T09:41:07.528Z,58.84
2023-07-02T09:42:07.586Z,57.46
2023-07-02T09:43:07.647Z,57.15
2023-07-02T09:44:07.749Z,56.36
2023-07-02T09:45:07.819Z,55.86
2023-07-02T09:46:07.904Z,56.29
2023-07-02T09:47:07.974Z,56.38
2023-07-02T09:48:08.077Z,56.46
2023-07-02T09:49:08.163Z,56.85
2023-07-02T09:50:08.205Z,55.93
2023-07-02T09:51:08.299Z,56.03
2023-07-02T09:52:08.378Z,55.61
2023-07-02T09:53:08.467Z,55.91
2023-07-02T09:54:08.616Z,55.16
2023-07-02T09:55:08.669Z,54.93
2023-07-02T09:56:08.708Z,54.18
2023-07-02T09:57:08.801Z,52.86
2023-07-02T09:58:08.857Z,52.47
2023-07-02T09:59:08.954Z,52.17
2023-07-02T10:00:09.003Z,51.47
2023-07-02T10:01:09.077Z,50.78
2023-07-02T10:02:09.235Z,50.73
2023-07-02T10:03:09.320Z,50.73
2023-07-02T10:04:09.384Z,50.35
2023-07-02T10:05:09.525Z,50.18
2023-07-02T10:06:09.504Z,50.70
2023-07-02T10:07:09.585Z,51.00
2023-07-02T10:08:09.628Z,51.03
2023-07-02T10:09:09.756Z,52.04
2023-07-02T10:10:09.804Z,52.27
2023-07-02T10:11:09.882Z,52.99
2023-07-02T10:12:09.946Z,53.39
2023-07-02T10:13:10.061Z,53.91
2023-07-02T10:14:10.135Z,54.61
2023-07-02T10:15:10.210Z,54.01
2023-07-02T10:16:10.270Z,53.91
2023-07-02T10:17:10.363Z,53.91
2023-07-02T10:18:10.450Z,54.71
2023-07-02T10:19:10.546Z,54.11
2023-07-02T10:20:10.633Z,54.01
2023-07-02T10:21:10.694Z,54.38
2023-07-02T10:22:10.773Z,54.38
2023-07-02T10:23:10.873Z,54.56
2023-07-02T10:24:10.979Z,53.46
2023-07-02T10:25:11.033Z,53.36
2023-07-02T10:26:11.100Z,52.27
2023-07-02T10:27:11.196Z,52.74
2023-07-02T10:28:11.268Z,52.34
2023-07-02T10:29:11.371Z,52.34
2023-07-02T10:30:11.418Z,52.74
2023-07-02T10:31:11.518Z,53.14
2023-07-02T10:32:11.589Z,53.83
2023-07-02T10:33:11.671Z,53.46
2023-07-02T10:34:11.775Z,52.97
2023-07-02T10:35:11.856Z,53.27
2023-07-02T10:36:11.927Z,53.09
2023-07-02T10:37:12.037Z,53.22
2023-07-02T10:38:12.108Z,54.53
2023-07-02T10:39:12.224Z,54.94
2023-07-02T10:40:12.257Z,54.44
2023-07-02T10:41:12.352Z,55.26
2023-07-02T10:42:12.428Z,55.76
2023-07-02T10:43:12.514Z,54.86
2023-07-02T10:44:12.665Z,54.59
2023-07-02T10:45:12.655Z,54.16
2023-07-02T10:46:12.790Z,53.66
2023-07-02T10:47:12.817Z,53.94
2023-07-02T10:48:12.889Z,53.94
2023-07-02T10:49:13.010Z,52.81
2023-07-02T10:50:13.041Z,52.09
2023-07-02T10:51:13.126Z,52.00
2023-07-02T10:52:13.171Z,52.09
2023-07-02T10:53:13.279Z,51.97
2023-07-02T10:54:13.338Z,51.65
2023-07-02T10:55:13.428Z,50.93
2023-07-02T10:56:13.501Z,50.90
2023-07-02T10:57:13.592Z,51.00
2023-07-02T10:58:13.656Z,51.20
2023-07-02T10:59:14.002Z,50.48
2023-07-02T11:00:13.826Z,49.36
2023-07-02T11:01:13.940Z,50.05
2023-07-02T11:02:14.015Z,48.89
2023-07-02T11:03:14.200Z,50.08
2023-07-02T11:04:14.281Z,49.49
2023-07-02T11:05:14.313Z,48.99
2023-07-02T11:06:14.337Z,49.38
2023-07-02T11:07:14.417Z,48.89
2023-07-02T11:08:14.487Z,49.38
2023-07-02T11:09:14.571Z,48.71
2023-07-02T11:10:14.724Z,48.81
2023-07-02T11:11:14.716Z,49.73
2023-07-02T11:12:14.788Z,48.94
2023-07-02T11:13:14.860Z,49.04
2023-07-02T11:14:14.938Z,49.23
2023-07-02T11:15:15.019Z,48.64
2023-07-02T11:16:15.090Z,47.94
2023-07-02T11:17:15.300Z,49.13
2023-07-02T11:18:15.432Z,48.46
2023-07-02T11:19:15.322Z,48.36
2023-07-02T11:20:15.422Z,48.56
2023-07-02T11:21:15.473Z,48.98
2023-07-02T11:22:15.549Z,49.28
2023-07-02T11:23:15.634Z,49.18
2023-07-02T11:24:15.723Z,49.80
2023-07-02T11:25:15.803Z,49.60
2023-07-02T11:26:15.862Z,50.70
2023-07-02T11:27:15.941Z,50.60
2023-07-02T11:28:16.032Z,51.00
2023-07-02T11:29:16.152Z,51.29
2023-07-02T11:30:16.212Z,50.40
2023-07-02T11:31:16.353Z,50.70
2023-07-02T11:32:16.363Z,51.67
2023-07-02T11:33:16.439Z,50.85
2023-07-02T11:34:18.823Z,50.43
2023-07-02T11:35:16.594Z,49.21
2023-07-02T11:36:16.657Z,48.29
2023-07-02T11:37:16.742Z,47.60
2023-07-02T11:38:16.810Z,47.87
2023-07-02T11:39:16.989Z,47.57
2023-07-02T11:40:16.975Z,47.28
2023-07-02T11:41:17.865Z,48.05
2023-07-02T11:42:17.123Z,46.98
2023-07-02T11:43:17.222Z,47.28
2023-07-02T11:44:17.312Z,47.20
2023-07-02T11:45:17.385Z,46.31
2023-07-02T11:46:17.504Z,46.13
2023-07-02T11:47:17.586Z,47.25
2023-07-02T11:48:17.629Z,47.34
2023-07-02T11:49:17.739Z,48.07
2023-07-02T11:50:26.334Z,48.16
2023-07-02T11:51:17.873Z,48.26
2023-07-02T11:52:17.954Z,49.06
2023-07-02T11:53:18.029Z,49.26
2023-07-02T11:54:18.115Z,49.55
2023-07-02T11:55:18.192Z,49.85
2023-07-02T11:56:18.276Z,49.66
2023-07-02T11:57:18.374Z,49.46
2023-07-02T11:58:18.426Z,50.08
2023-07-02T11:59:18.523Z,50.18
2023-07-02T12:00:18.555Z,50.57
2023-07-02T12:01:18.722Z,51.10
2023-07-02T12:02:18.726Z,51.40
2023-07-02T12:03:18.870Z,51.70
2023-07-02T12:04:18.977Z,51.40
2023-07-02T12:05:18.988Z,51.40
2023-07-02T12:06:19.038Z,51.79
2023-07-02T12:07:19.132Z,52.00
2023-07-02T12:08:19.202Z,52.09
2023-07-02T12:09:19.301Z,51.72
2023-07-02T12:10:19.341Z,51.59
2023-07-02T12:11:19.423Z,51.89
2023-07-02T12:12:19.492Z,52.39
2023-07-02T12:13:19.597Z,52.17
2023-07-02T12:14:19.682Z,52.47
2023-07-02T12:15:19.762Z,52.74
2023-07-02T12:16:19.919Z,52.74
2023-07-02T12:17:19.979Z,51.92
2023-07-02T12:18:20.022Z,51.12
2023-07-02T12:19:20.490Z,51.00
2023-07-02T12:20:20.186Z,51.32
2023-07-02T12:21:20.255Z,51.03
2023-07-02T12:22:20.352Z,51.12
2023-07-02T12:23:20.426Z,51.12
2023-07-02T12:24:20.738Z,51.42
2023-07-02T12:25:20.606Z,51.42
2023-07-02T12:26:20.676Z,51.22
2023-07-02T12:27:20.750Z,50.90
2023-07-02T12:28:20.827Z,50.80
2023-07-02T12:29:21.031Z,50.90
2023-07-02T12:30:20.996Z,50.90
2023-07-02T12:31:21.202Z,50.58
2023-07-02T12:32:21.240Z,49.31
2023-07-02T12:33:21.258Z,50.31
2023-07-02T12:34:21.470Z,50.93
2023-07-02T12:35:21.420Z,50.73
2023-07-02T12:36:21.477Z,50.27
2023-07-02T12:37:21.587Z,51.47
2023-07-02T12:38:21.658Z,51.50
2023-07-02T12:39:23.881Z,51.59
2023-07-02T12:40:21.832Z,52.19
2023-07-02T12:41:21.908Z,51.67
2023-07-02T12:42:21.993Z,51.47
2023-07-02T12:43:22.074Z,50.45
2023-07-02T12:44:22.228Z,50.87
2023-07-02T12:45:22.311Z,52.04
2023-07-02T12:46:22.394Z,51.77
2023-07-02T12:47:22.476Z,51.84
2023-07-02T12:48:22.484Z,51.45
2023-07-02T12:49:22.577Z,51.15
2023-07-02T12:50:22.643Z,51.77
2023-07-02T12:51:22.728Z,52.57
2023-07-02T12:52:22.788Z,52.34
2023-07-02T12:53:22.903Z,50.55